createdAt,value
2015-10-28T00:00:36.935Z,88
2015-10-28T00:01:38.719Z,88
2015-10-28T00:02:40.503Z,88
2015-10-28T00:03:42.303Z,88
2015-10-28T00:04:44.087Z,88
2015-10-28T00:05:45.886Z,88
2015-10-28T00:06:47.783Z,88
2015-10-28T00:07:49.942Z,88
2015-10-28T00:08:51.335Z,88
2015-10-28T00:09:53.088Z,88
2015-10-28T00:10:54.857Z,88
2015-10-28T00:11:56.640Z,88
2015-10-28T00:12:58.487Z,88
2015-10-28T00:14:00.223Z,88
2015-10-28T00:15:02.008Z,88
2015-10-28T00:16:03.808Z,88
2015-10-28T00:17:05.654Z,88
2015-10-28T00:18:07.394Z,88
2015-10-28T00:19:08.881Z,88
2015-10-28T00:20:10.978Z,88
2015-10-28T00:22:14.561Z,88
2015-10-28T00:23:16.345Z,88
2015-10-28T00:24:18.145Z,88
2015-10-28T00:25:19.944Z,88
2015-10-28T00:26:21.728Z,88
2015-10-28T00:27:23.591Z,88
2015-10-28T00:28:25.296Z,88
2015-10-28T00:29:27.345Z,88
2015-10-28T00:31:31.460Z,88
2015-10-28T00:33:35.543Z,88
2015-10-28T00:34:37.593Z,89
2015-10-28T00:35:39.908Z,89
2015-10-28T00:36:42.193Z,89
2015-10-28T00:37:44.570Z,89
2015-10-28T00:38:46.291Z,89
2015-10-28T00:39:48.606Z,89
2015-10-28T00:40:50.907Z,89
2015-10-28T00:41:53.206Z,89
2015-10-28T00:42:55.521Z,89
2015-10-28T00:43:57.837Z,89
2015-10-28T00:45:00.136Z,89
2015-10-28T00:46:02.434Z,89
2015-10-28T00:47:04.750Z,89
2015-10-28T00:48:07.097Z,89
2015-10-28T00:49:08.867Z,89
2015-10-28T00:51:13.451Z,89
2015-10-28T00:53:18.067Z,89
2015-10-28T00:55:22.680Z,89
2015-10-28T00:56:24.980Z,89
2015-10-28T00:57:27.311Z,89
2015-10-28T00:58:29.673Z,89
2015-10-28T00:59:31.394Z,89
2015-10-28T01:00:33.694Z,89
2015-10-28T01:02:38.310Z,89
2015-10-28T01:03:40.608Z,89
2015-10-28T01:04:42.924Z,89
2015-10-28T01:05:45.224Z,89
2015-10-28T01:06:47.523Z,89
2015-10-28T01:07:49.838Z,89
2015-10-28T01:08:52.201Z,89
2015-10-28T01:09:53.938Z,89
2015-10-28T01:10:52.393Z,89
2015-10-28T01:11:54.708Z,89
2015-10-28T01:12:57.007Z,89
2015-10-28T01:13:59.323Z,89
2015-10-28T01:15:01.622Z,89
2015-10-28T01:16:03.937Z,89
2015-10-28T01:17:06.222Z,89
2015-10-28T01:18:08.537Z,89
2015-10-28T01:19:10.917Z,89
2015-10-28T01:20:12.639Z,89
2015-10-28T01:21:14.939Z,89
2015-10-28T01:22:17.269Z,89
2015-10-28T01:23:19.553Z,89
2015-10-28T01:24:21.853Z,89
2015-10-28T01:26:26.484Z,89
2015-10-28T01:28:27.216Z,89
2015-10-28T01:30:27.446Z,89
2015-10-28T01:31:29.747Z,89
2015-10-28T01:33:26.663Z,89
2015-10-28T01:37:20.470Z,89
2015-10-28T01:38:18.924Z,89
2015-10-28T01:39:17.440Z,89
2015-10-28T01:40:19.175Z,89
2015-10-28T01:41:17.675Z,89
2015-10-28T01:42:16.098Z,89
2015-10-28T01:45:11.479Z,89
2015-10-28T01:46:09.934Z,89
2015-10-28T01:47:08.405Z,89
2015-10-28T01:48:06.860Z,89
2015-10-28T01:49:05.378Z,89
2015-10-28T01:50:07.116Z,89
2015-10-28T01:51:05.571Z,89
2015-10-28T01:52:04.026Z,89
2015-10-28T01:53:02.498Z,89
2015-10-28T01:56:56.337Z,89
2015-10-28T01:57:54.793Z,89
2015-10-28T01:58:53.577Z,89
2015-10-28T01:59:55.314Z,89
2015-10-28T02:00:54.035Z,89
2015-10-28T02:01:52.742Z,89
2015-10-28T02:03:50.168Z,89
2015-10-28T02:04:48.921Z,89
2015-10-28T02:05:47.612Z,89
2015-10-28T02:06:46.334Z,89
2015-10-28T02:07:45.053Z,89
2015-10-28T02:10:44.281Z,89
2015-10-28T02:11:43.003Z,89
2015-10-28T02:12:44.739Z,89
2015-10-28T02:13:43.461Z,89
2015-10-28T02:14:39.152Z,89
2015-10-28T02:15:37.873Z,89
2015-10-28T02:16:36.579Z,89
2015-10-28T02:17:35.300Z,89
2015-10-28T02:18:34.068Z,89
2015-10-28T02:19:35.805Z,89
2015-10-28T02:20:34.527Z,89
2015-10-28T02:21:33.249Z,89
2015-10-28T02:23:30.692Z,89
2015-10-28T02:25:31.150Z,89
2015-10-28T02:28:24.328Z,89
2015-10-28T02:29:26.065Z,89
2015-10-28T02:30:24.989Z,89
2015-10-28T02:31:26.538Z,89
2015-10-28T02:32:22.228Z,89
2015-10-28T02:34:19.656Z,89
2015-10-28T02:35:18.377Z,89
2015-10-28T02:36:17.099Z,89
2015-10-28T02:37:15.821Z,89
2015-10-28T02:38:14.590Z,89
2015-10-28T02:39:16.342Z,89
2015-10-28T02:40:15.048Z,89
2015-10-28T02:41:13.768Z,89
2015-10-28T02:42:12.475Z,89
2015-10-28T02:43:11.212Z,89
2015-10-28T02:44:09.918Z,89
2015-10-28T02:46:07.361Z,89
2015-10-28T02:47:06.082Z,89
2015-10-28T02:48:04.867Z,89
2015-10-28T02:50:05.512Z,89
2015-10-28T02:51:03.968Z,89
2015-10-28T02:53:01.473Z,89
2015-10-28T02:55:01.932Z,89
2015-10-28T02:57:55.062Z,89
2015-10-28T02:58:56.850Z,89
2015-10-28T02:59:55.568Z,89
2015-10-28T03:00:54.289Z,89
2015-10-28T03:01:53.011Z,89
2015-10-28T03:02:51.733Z,89
2015-10-28T03:03:50.453Z,89
2015-10-28T03:04:49.160Z,89
2015-10-28T03:05:47.881Z,89
2015-10-28T03:06:46.603Z,89
2015-10-28T03:07:45.371Z,89
2015-10-28T03:08:47.124Z,89
2015-10-28T03:10:44.551Z,89
2015-10-28T03:11:43.288Z,89
2015-10-28T03:12:41.994Z,89
2015-10-28T03:13:40.716Z,89
2015-10-28T03:14:39.438Z,89
2015-10-28T03:15:38.408Z,89
2015-10-28T03:16:37.130Z,89
2015-10-28T03:17:35.899Z,89
2015-10-28T03:18:37.651Z,89
2015-10-28T03:19:36.622Z,89
2015-10-28T03:20:35.344Z,90
2015-10-28T03:21:34.300Z,89
2015-10-28T03:22:33.287Z,89
2015-10-28T03:23:32.274Z,89
2015-10-28T03:24:31.230Z,89
2015-10-28T03:25:30.218Z,89
2015-10-28T03:27:28.239Z,90
2015-10-28T03:29:28.932Z,89
2015-10-28T03:30:27.900Z,89
2015-10-28T03:31:29.922Z,89
2015-10-28T03:32:28.891Z,89
2015-10-28T03:33:24.830Z,89
2015-10-28T03:34:23.802Z,89
2015-10-28T03:35:22.789Z,89
2015-10-28T03:36:21.495Z,89
2015-10-28T03:37:20.279Z,89
2015-10-28T03:38:22.016Z,89
2015-10-28T03:39:20.987Z,89
2015-10-28T03:41:18.679Z,89
2015-10-28T03:42:17.667Z,89
2015-10-28T03:43:16.639Z,89
2015-10-28T03:44:15.610Z,89
2015-10-28T03:45:14.582Z,89
2015-10-28T03:46:13.319Z,89
2015-10-28T03:47:12.338Z,89
2015-10-28T03:48:14.074Z,89
2015-10-28T03:49:13.062Z,89
2015-10-28T03:50:12.033Z,89
2015-10-28T03:51:11.004Z,89
2015-10-28T03:52:09.976Z,89
2015-10-28T03:53:08.963Z,89
2015-10-28T03:54:07.934Z,89
2015-10-28T03:55:06.671Z,89
2015-10-28T03:56:05.627Z,89
2015-10-28T03:58:06.148Z,89
2015-10-28T03:59:04.854Z,89
2015-10-28T04:00:03.575Z,89
2015-10-28T04:01:02.298Z,89
2015-10-28T04:02:59.740Z,89
2015-10-28T04:03:58.459Z,89
2015-10-28T04:05:00.214Z,89
2015-10-28T04:05:55.902Z,89
2015-10-28T04:06:54.686Z,89
2015-10-28T04:07:56.423Z,89
2015-10-28T04:08:55.145Z,89
2015-10-28T04:09:53.866Z,89
2015-10-28T04:10:52.588Z,89
2015-10-28T04:11:51.325Z,89
2015-10-28T04:12:50.030Z,89
2015-10-28T04:13:48.752Z,89
2015-10-28T04:15:46.195Z,89
2015-10-28T04:16:44.980Z,89
2015-10-28T04:18:45.437Z,89
2015-10-28T04:19:44.159Z,89
2015-10-28T04:20:42.880Z,89
2015-10-28T04:21:41.602Z,89
2015-10-28T04:22:40.324Z,89
2015-10-28T04:23:39.044Z,89
2015-10-28T04:24:37.766Z,89
2015-10-28T04:25:36.488Z,89
2015-10-28T04:26:35.271Z,89
2015-10-28T04:29:34.452Z,89
2015-10-28T04:32:30.101Z,89
2015-10-28T04:33:28.569Z,89
2015-10-28T04:34:27.041Z,89
2015-10-28T04:36:24.015Z,89
2015-10-28T04:37:25.784Z,89
2015-10-28T04:38:24.833Z,89
2015-10-28T04:43:24.238Z,88
2015-10-28T04:45:28.852Z,88
2015-10-28T04:46:31.230Z,88
2015-10-28T04:47:32.967Z,88
2015-10-28T04:48:35.282Z,88
2015-10-28T04:49:37.598Z,88
2015-10-28T04:51:42.228Z,88
2015-10-28T04:52:44.543Z,88
2015-10-28T04:53:46.892Z,88
2015-10-28T04:54:49.176Z,88
2015-10-28T04:55:51.492Z,88
2015-10-28T04:56:53.854Z,88
2015-10-28T04:57:55.591Z,88
2015-10-28T04:58:57.906Z,88
2015-10-28T05:00:00.221Z,88
2015-10-28T05:02:04.852Z,88
2015-10-28T05:03:07.167Z,88
2015-10-28T05:05:11.781Z,88
2015-10-28T05:06:14.097Z,88
2015-10-28T05:07:16.475Z,88
2015-10-28T05:08:18.212Z,88
2015-10-28T05:09:20.527Z,88
2015-10-28T05:10:22.842Z,88
2015-10-28T05:11:25.158Z,88
2015-10-28T05:12:27.473Z,88
2015-10-28T05:13:29.772Z,88
2015-10-28T05:15:34.403Z,88
2015-10-28T05:16:36.719Z,88
2015-10-28T05:17:39.080Z,88
2015-10-28T05:18:40.833Z,88
2015-10-28T05:22:50.078Z,88
2015-10-28T05:23:52.393Z,88
2015-10-28T05:24:54.708Z,88
2015-10-28T05:25:57.024Z,88
2015-10-28T05:26:59.339Z,88
2015-10-28T05:28:01.702Z,88
2015-10-28T05:30:05.769Z,88
2015-10-28T05:31:08.069Z,88
2015-10-28T05:33:12.699Z,88
2015-10-28T05:34:15.015Z,88
2015-10-28T05:35:17.346Z,88
2015-10-28T05:36:19.646Z,88
2015-10-28T05:37:21.961Z,88
2015-10-28T05:38:24.323Z,88
2015-10-28T05:40:28.374Z,88
2015-10-28T05:41:30.691Z,88
2015-10-28T05:42:33.005Z,88
2015-10-28T05:43:35.321Z,88
2015-10-28T05:44:37.636Z,88
2015-10-28T05:45:39.968Z,88
2015-10-28T05:46:42.282Z,88
2015-10-28T05:47:44.585Z,88
2015-10-28T05:49:48.698Z,88
2015-10-28T05:50:51.014Z,88
2015-10-28T05:51:53.329Z,88
2015-10-28T05:53:57.959Z,88
2015-10-28T05:56:02.528Z,88
2015-10-28T05:57:04.921Z,88
2015-10-28T05:58:07.202Z,88
2015-10-28T05:59:09.580Z,88
2015-10-28T06:00:11.317Z,88
2015-10-28T06:01:13.648Z,88
2015-10-28T06:02:15.947Z,88
2015-10-28T06:03:18.278Z,88
2015-10-28T06:04:20.578Z,88
2015-10-28T06:05:22.909Z,88
2015-10-28T06:06:25.209Z,88
2015-10-28T06:07:27.524Z,88
2015-10-28T06:08:29.839Z,88
2015-10-28T06:09:32.216Z,88
2015-10-28T06:10:33.955Z,88
2015-10-28T06:11:36.269Z,88
2015-10-28T06:12:38.615Z,88
2015-10-28T06:13:40.900Z,88
2015-10-28T06:14:43.216Z,88
2015-10-28T06:15:45.530Z,88
2015-10-28T06:16:47.596Z,88
2015-10-28T06:17:49.911Z,88
2015-10-28T06:18:52.226Z,88
2015-10-28T06:19:54.588Z,88
2015-10-28T06:20:56.325Z,88
2015-10-28T06:21:58.391Z,88
2015-10-28T06:25:04.570Z,88
2015-10-28T06:26:06.635Z,88
2015-10-28T06:27:08.701Z,87
2015-10-28T06:28:10.501Z,87
2015-10-28T06:29:12.285Z,88
2015-10-28T06:30:14.412Z,87
2015-10-28T06:31:16.166Z,87
2015-10-28T06:32:17.965Z,87
2015-10-28T06:33:19.765Z,87
2015-10-28T06:34:21.563Z,87
2015-10-28T06:35:23.380Z,87
2015-10-28T06:36:25.179Z,87
2015-10-28T06:37:26.994Z,87
2015-10-28T06:38:28.779Z,87
2015-10-28T06:39:30.577Z,87
2015-10-28T06:40:32.440Z,87
2015-10-28T06:41:34.193Z,87
2015-10-28T06:42:36.008Z,87
2015-10-28T06:44:39.607Z,87
2015-10-28T06:45:41.406Z,87
2015-10-28T06:46:43.221Z,87
2015-10-28T06:48:46.806Z,87
2015-10-28T06:49:48.621Z,87
2015-10-28T06:50:50.485Z,87
2015-10-28T06:51:52.222Z,87
2015-10-28T06:52:54.038Z,87
2015-10-28T06:53:55.822Z,87
2015-10-28T06:54:57.637Z,87
2015-10-28T06:55:59.437Z,87
2015-10-28T06:57:00.987Z,87
2015-10-28T06:58:02.801Z,87
2015-10-28T06:59:04.336Z,87
2015-10-28T07:01:07.747Z,87
2015-10-28T07:03:11.017Z,87
2015-10-28T07:05:14.117Z,87
2015-10-28T07:08:18.766Z,87
2015-10-28T07:09:20.316Z,87
2015-10-28T07:10:21.850Z,87
2015-10-28T07:12:25.200Z,87
2015-10-28T07:13:26.749Z,87
2015-10-28T07:15:29.583Z,87
2015-10-28T07:16:30.866Z,87
2015-10-28T07:17:32.150Z,87
2015-10-28T07:18:33.450Z,87
2015-10-28T07:19:34.733Z,87
2015-10-28T07:20:36.033Z,87
2015-10-28T07:21:37.364Z,87
2015-10-28T07:22:39.117Z,87
2015-10-28T07:23:40.416Z,87
2015-10-28T07:24:41.700Z,87
2015-10-28T07:25:42.984Z,87
2015-10-28T07:26:44.284Z,86
2015-10-28T07:27:45.302Z,86
2015-10-28T07:28:46.336Z,86
2015-10-28T07:30:48.404Z,86
2015-10-28T07:31:49.486Z,86
2015-10-28T07:32:51.222Z,86
2015-10-28T07:33:52.006Z,86
2015-10-28T07:34:52.775Z,86
2015-10-28T07:35:53.559Z,86
2015-10-28T07:36:54.343Z,86
2015-10-28T07:37:55.111Z,86
2015-10-28T07:38:55.895Z,86
2015-10-28T07:40:57.432Z,86
2015-10-28T07:41:58.278Z,86
2015-10-28T07:44:00.783Z,86
2015-10-28T07:45:01.568Z,86
2015-10-28T07:46:02.337Z,86
2015-10-28T07:47:03.104Z,86
2015-10-28T07:48:03.888Z,86
2015-10-28T07:49:04.656Z,86
2015-10-28T07:50:05.440Z,86
2015-10-28T07:51:05.943Z,85
2015-10-28T07:52:06.274Z,85
2015-10-28T07:53:08.011Z,85
2015-10-28T07:54:08.279Z,85
2015-10-28T07:55:08.532Z,85
2015-10-28T07:56:08.801Z,85
2015-10-28T07:57:09.070Z,85
2015-10-28T07:58:09.322Z,85
2015-10-28T07:59:09.590Z,85
2015-10-28T08:00:09.842Z,85
2015-10-28T08:02:10.442Z,85
2015-10-28T08:03:12.164Z,85
2015-10-28T08:04:12.417Z,85
2015-10-28T08:05:12.685Z,85
2015-10-28T08:06:12.938Z,85
2015-10-28T08:07:12.957Z,85
2015-10-28T08:08:12.943Z,85
2015-10-28T08:09:12.946Z,85
2015-10-28T08:11:11.921Z,84
2015-10-28T08:12:11.033Z,84
2015-10-28T08:13:13.223Z,84
2015-10-28T08:14:12.460Z,84
2015-10-28T08:15:11.681Z,84
2015-10-28T08:16:10.919Z,84
2015-10-28T08:17:10.156Z,84
2015-10-28T08:18:09.377Z,84
2015-10-28T08:19:08.348Z,84
2015-10-28T08:20:07.055Z,83
2015-10-28T08:21:05.525Z,83
2015-10-28T08:22:04.041Z,84
2015-10-28T08:23:05.766Z,84
2015-10-28T08:24:04.484Z,84
2015-10-28T08:25:03.205Z,83
2015-10-28T08:26:01.661Z,83
2015-10-28T08:27:03.961Z,83
2015-10-28T08:29:08.044Z,81
2015-10-28T08:30:09.329Z,81
2015-10-28T08:31:10.378Z,81
2015-10-28T08:33:13.180Z,80
2015-10-28T08:35:13.686Z,80
2015-10-28T08:36:14.189Z,80
2015-10-28T08:37:14.708Z,80
2015-10-28T08:39:15.713Z,80
2015-10-28T08:40:16.232Z,80
2015-10-28T08:42:17.034Z,80
2015-10-28T08:43:18.755Z,80
2015-10-28T08:45:19.245Z,80
2015-10-28T08:46:19.498Z,80
2015-10-28T08:47:19.751Z,80
2015-10-28T08:48:19.721Z,79
2015-10-28T08:49:19.459Z,79
2015-10-28T08:50:18.929Z,79
2015-10-28T08:51:18.668Z,79
2015-10-28T08:52:18.451Z,79
2015-10-28T08:53:20.173Z,79
2015-10-28T08:54:19.410Z,79
2015-10-28T08:55:18.615Z,78
2015-10-28T08:56:17.571Z,78
2015-10-28T08:57:16.028Z,78
2015-10-28T08:58:14.484Z,77
2015-10-28T09:01:21.367Z,77
2015-10-28T09:02:23.712Z,77
2015-10-28T09:03:25.419Z,77
2015-10-28T09:04:27.453Z,77
2015-10-28T09:06:31.537Z,76
2015-10-28T09:07:33.305Z,76
2015-10-28T09:08:35.089Z,76
2015-10-28T09:11:39.894Z,75
2015-10-28T09:12:40.708Z,74
2015-10-28T09:14:42.652Z,74
2015-10-28T09:15:42.638Z,74
2015-10-28T09:16:42.626Z,74
2015-10-28T09:17:42.847Z,74
2015-10-28T09:18:43.085Z,74
2015-10-28T09:19:43.337Z,74
2015-10-28T09:20:43.511Z,74
2015-10-28T09:21:43.811Z,74
2015-10-28T09:22:43.830Z,74
2015-10-28T09:23:45.567Z,73
2015-10-28T09:24:45.288Z,73
2015-10-28T09:25:45.025Z,73
2015-10-28T09:27:43.968Z,72
2015-10-28T09:28:43.191Z,72
2015-10-28T09:29:42.411Z,73
2015-10-28T09:30:41.852Z,73
2015-10-28T09:31:41.588Z,73
2015-10-28T09:32:41.358Z,73
2015-10-28T09:33:43.094Z,73
2015-10-28T09:34:42.800Z,72
2015-10-28T09:35:42.006Z,72
2015-10-28T09:36:40.962Z,72
2015-10-28T09:37:40.182Z,73
2015-10-28T09:38:39.654Z,72
2015-10-28T09:39:38.860Z,72
2015-10-28T09:40:38.082Z,72
2015-10-28T09:41:37.287Z,72
2015-10-28T09:42:36.557Z,72
2015-10-28T09:43:38.278Z,72
2015-10-28T09:44:37.233Z,73
2015-10-28T09:45:36.440Z,73
2015-10-28T09:46:35.645Z,73
2015-10-28T09:47:34.867Z,73
2015-10-28T09:48:34.057Z,73
2015-10-28T09:49:33.279Z,72
2015-10-28T09:50:32.234Z,73
2015-10-28T09:51:31.440Z,72
2015-10-28T09:52:30.458Z,72
2015-10-28T09:53:32.165Z,72
2015-10-28T09:54:31.120Z,72
2015-10-28T09:55:30.075Z,72
2015-10-28T09:56:29.031Z,73
2015-10-28T09:57:28.238Z,72
2015-10-28T09:58:27.178Z,72
2015-10-28T09:59:26.150Z,72
2015-10-28T10:00:25.087Z,72
2015-10-28T10:01:24.043Z,71
2015-10-28T10:02:22.530Z,71
2015-10-28T10:03:24.236Z,71
2015-10-28T10:04:26.536Z,71
2015-10-28T10:05:28.822Z,70
2015-10-28T10:06:30.856Z,71
2015-10-28T10:07:33.140Z,71
2015-10-28T10:08:35.408Z,70
2015-10-28T10:09:37.207Z,70
2015-10-28T10:10:38.960Z,70
2015-10-28T10:11:40.744Z,70
2015-10-28T10:12:42.560Z,70
2015-10-28T10:13:44.280Z,70
2015-10-28T10:14:46.315Z,70
2015-10-28T10:15:48.068Z,70
2015-10-28T10:16:49.835Z,70
2015-10-28T10:17:51.621Z,70
2015-10-28T10:18:53.638Z,70
2015-10-28T10:19:55.407Z,70
2015-10-28T10:20:57.440Z,70
2015-10-28T10:21:59.474Z,70
2015-10-28T10:23:01.555Z,70
2015-10-28T10:24:03.262Z,70
2015-10-28T10:25:05.279Z,70
2015-10-28T10:26:07.048Z,70
2015-10-28T10:28:11.085Z,70
2015-10-28T10:29:12.868Z,70
2015-10-28T10:30:14.637Z,70
2015-10-28T10:31:16.406Z,70
2015-10-28T10:32:18.174Z,70
2015-10-28T10:33:19.740Z,70
2015-10-28T10:34:21.460Z,70
2015-10-28T10:35:23.198Z,70
2015-10-28T10:36:24.685Z,70
2015-10-28T10:37:26.455Z,70
2015-10-28T10:38:28.209Z,70
2015-10-28T10:39:29.972Z,70
2015-10-28T10:40:31.484Z,70
2015-10-28T10:41:32.982Z,70
2015-10-28T10:42:34.510Z,70
2015-10-28T10:43:36.320Z,70
2015-10-28T10:44:38.024Z,70
2015-10-28T10:45:40.055Z,70
2015-10-28T10:46:42.088Z,70
2015-10-28T10:47:44.103Z,70
2015-10-28T10:48:45.885Z,70
2015-10-28T10:49:47.653Z,70
2015-10-28T10:50:49.421Z,70
2015-10-28T10:51:51.187Z,70
2015-10-28T10:52:52.955Z,70
2015-10-28T10:53:55.052Z,70
2015-10-28T10:54:56.758Z,70
2015-10-28T10:55:58.792Z,70
2015-10-28T10:57:00.810Z,70
2015-10-28T10:58:02.578Z,70
2015-10-28T10:59:04.630Z,70
2015-10-28T11:00:06.633Z,70
2015-10-28T11:01:08.666Z,70
2015-10-28T11:02:10.701Z,70
2015-10-28T11:03:12.719Z,70
2015-10-28T11:04:14.816Z,70
2015-10-28T11:05:16.522Z,70
2015-10-28T11:06:18.555Z,70
2015-10-28T11:07:20.590Z,70
2015-10-28T11:08:22.593Z,70
2015-10-28T11:09:24.111Z,70
2015-10-28T11:10:25.629Z,70
2015-10-28T11:11:27.413Z,70
2015-10-28T11:12:29.447Z,70
2015-10-28T11:13:31.465Z,70
2015-10-28T11:14:33.562Z,70
2015-10-28T11:15:35.267Z,70
2015-10-28T11:16:37.287Z,71
2015-10-28T11:17:39.585Z,71
2015-10-28T11:20:46.438Z,71
2015-10-28T11:21:48.706Z,71
2015-10-28T11:22:51.005Z,71
2015-10-28T11:24:51.776Z,71
2015-10-28T11:25:53.497Z,71
2015-10-28T11:26:51.923Z,71
2015-10-28T11:27:50.379Z,71
2015-10-28T11:28:48.834Z,71
2015-10-28T11:29:51.086Z,71
2015-10-28T11:31:51.818Z,71
2015-10-28T11:32:54.118Z,71
2015-10-28T11:33:52.541Z,71
2015-10-28T11:34:51.044Z,71
2015-10-28T11:35:52.751Z,71
2015-10-28T11:36:51.206Z,71
2015-10-28T11:37:49.631Z,71
2015-10-28T11:38:51.918Z,71
2015-10-28T11:39:54.201Z,71
2015-10-28T11:40:56.485Z,71
2015-10-28T11:41:54.926Z,71
2015-10-28T11:43:51.790Z,71
2015-10-28T11:44:50.294Z,71
2015-10-28T11:45:52.015Z,71
2015-10-28T11:46:50.455Z,71
2015-10-28T11:47:48.896Z,71
2015-10-28T11:48:47.335Z,72
2015-10-28T11:49:46.026Z,72
2015-10-28T11:50:44.731Z,72
2015-10-28T11:51:43.437Z,72
2015-10-28T11:52:42.128Z,72
2015-10-28T11:53:40.834Z,72
2015-10-28T11:54:39.586Z,72
2015-10-28T11:56:39.998Z,71
2015-10-28T11:57:38.420Z,71
2015-10-28T11:58:36.876Z,72
2015-10-28T11:59:35.566Z,72
2015-10-28T12:00:34.272Z,72
2015-10-28T12:01:32.961Z,72
2015-10-28T12:02:31.917Z,72
2015-10-28T12:04:29.376Z,72
2015-10-28T12:05:31.097Z,72
2015-10-28T12:06:29.788Z,72
2015-10-28T12:07:28.494Z,72
2015-10-28T12:08:27.434Z,72
2015-10-28T12:10:24.830Z,72
2015-10-28T12:11:23.519Z,72
2015-10-28T12:12:22.491Z,72
2015-10-28T12:13:21.432Z,72
2015-10-28T12:14:20.450Z,72
2015-10-28T12:15:22.156Z,72
2015-10-28T12:16:21.112Z,72
2015-10-28T12:17:19.818Z,72
2015-10-28T12:18:18.524Z,72
2015-10-28T12:19:17.214Z,72
2015-10-28T12:23:12.522Z,72
2015-10-28T12:24:11.524Z,72
2015-10-28T12:25:13.245Z,72
2015-10-28T12:27:11.157Z,72
2015-10-28T12:28:10.362Z,72
2015-10-28T12:29:09.569Z,72
2015-10-28T12:30:08.790Z,72
2015-10-28T12:31:07.996Z,72
2015-10-28T12:32:07.218Z,72
2015-10-28T12:33:06.423Z,72
2015-10-28T12:34:05.692Z,72
2015-10-28T12:35:07.398Z,72
2015-10-28T12:36:06.619Z,72
2015-10-28T12:38:05.031Z,72
2015-10-28T12:39:04.237Z,72
2015-10-28T12:40:03.456Z,72
2015-10-28T12:41:02.661Z,72
2015-10-28T12:42:01.867Z,72
2015-10-28T12:43:01.072Z,72
2015-10-28T12:44:00.341Z,72
2015-10-28T12:45:02.063Z,72
2015-10-28T12:46:01.284Z,73
2015-10-28T12:47:00.490Z,72
2015-10-28T12:47:59.697Z,72
2015-10-28T12:48:58.902Z,73
2015-10-28T12:49:58.108Z,72
2015-10-28T12:50:57.314Z,72
2015-10-28T12:51:56.535Z,72
2015-10-28T12:52:55.755Z,73
2015-10-28T12:53:55.008Z,72
2015-10-28T12:54:56.716Z,72
2015-10-28T12:55:55.936Z,72
2015-10-28T12:56:55.157Z,72
2015-10-28T12:57:54.348Z,72
2015-10-28T12:58:53.554Z,72
2015-10-28T12:59:52.775Z,72
2015-10-28T13:00:51.981Z,73
2015-10-28T13:01:51.452Z,73
2015-10-28T13:02:50.941Z,73
2015-10-28T13:03:50.443Z,73
2015-10-28T13:04:52.163Z,73
2015-10-28T13:05:51.635Z,73
2015-10-28T13:06:51.107Z,73
2015-10-28T13:07:50.563Z,73
2015-10-28T13:08:50.034Z,73
2015-10-28T13:09:49.490Z,73
2015-10-28T13:10:51.993Z,73
2015-10-28T13:12:47.904Z,73
2015-10-28T13:13:47.423Z,73
2015-10-28T13:14:49.145Z,73
2015-10-28T13:15:48.601Z,73
2015-10-28T13:16:48.071Z,73
2015-10-28T13:17:47.543Z,73
2015-10-28T13:18:47.014Z,73
2015-10-28T13:19:46.486Z,73
2015-10-28T13:20:45.921Z,73
2015-10-28T13:21:45.659Z,73
2015-10-28T13:22:45.379Z,73
2015-10-28T13:23:45.164Z,73
2015-10-28T13:24:46.870Z,73
2015-10-28T13:25:46.607Z,73
2015-10-28T13:26:46.329Z,73
2015-10-28T13:27:46.050Z,73
2015-10-28T13:29:45.493Z,73
2015-10-28T13:30:45.214Z,73
2015-10-28T13:31:44.951Z,73
2015-10-28T13:32:44.657Z,73
2015-10-28T13:33:44.457Z,73
2015-10-28T13:34:46.162Z,73
2015-10-28T13:35:45.884Z,73
2015-10-28T13:36:45.606Z,73
2015-10-28T13:37:45.325Z,73
2015-10-28T13:39:44.767Z,73
2015-10-28T13:40:44.489Z,73
2015-10-28T13:41:44.226Z,73
2015-10-28T13:42:43.947Z,73
2015-10-28T13:43:43.731Z,73
2015-10-28T13:44:45.437Z,73
2015-10-28T13:46:44.880Z,73
2015-10-28T13:47:44.602Z,73
2015-10-28T13:48:44.339Z,73
2015-10-28T13:49:44.045Z,74
2015-10-28T13:50:44.032Z,74
2015-10-28T13:51:44.004Z,74
2015-10-28T13:52:43.991Z,74
2015-10-28T13:53:44.024Z,74
2015-10-28T13:54:45.730Z,74
2015-10-28T13:55:45.717Z,74
2015-10-28T13:56:45.688Z,74
2015-10-28T13:57:45.633Z,74
2015-10-28T13:58:45.654Z,74
2015-10-28T13:59:45.657Z,74
2015-10-28T14:00:45.629Z,73
2015-10-28T14:01:45.350Z,73
2015-10-28T14:02:45.056Z,74
2015-10-28T14:04:46.811Z,74
2015-10-28T14:05:46.798Z,74
2015-10-28T14:06:46.770Z,74
2015-10-28T14:07:46.757Z,74
2015-10-28T14:08:46.728Z,74
2015-10-28T14:09:46.715Z,74
2015-10-28T14:10:46.687Z,74
2015-10-28T14:11:46.674Z,74
2015-10-28T14:12:46.646Z,74
2015-10-28T14:13:46.679Z,74
2015-10-28T14:15:48.388Z,74
2015-10-28T14:16:48.359Z,74
2015-10-28T14:17:48.331Z,74
2015-10-28T14:18:48.317Z,74
2015-10-28T14:19:48.289Z,74
2015-10-28T14:20:48.277Z,74
2015-10-28T14:21:48.247Z,74
2015-10-28T14:22:48.251Z,74
2015-10-28T14:23:48.269Z,74
2015-10-28T14:26:49.949Z,74
2015-10-28T14:27:49.921Z,74
2015-10-28T14:29:49.879Z,74
2015-10-28T14:30:49.866Z,74
2015-10-28T14:31:49.837Z,74
2015-10-28T14:32:49.824Z,74
2015-10-28T14:33:49.843Z,74
2015-10-28T14:35:51.817Z,74
2015-10-28T14:36:52.038Z,74
2015-10-28T14:37:52.276Z,74
2015-10-28T14:38:52.529Z,74
2015-10-28T14:39:52.749Z,74
2015-10-28T14:40:52.987Z,74
2015-10-28T14:41:53.224Z,74
2015-10-28T14:42:53.461Z,74
2015-10-28T14:43:53.745Z,74
2015-10-28T14:44:55.467Z,74
2015-10-28T14:45:55.704Z,74
2015-10-28T14:47:56.178Z,74
2015-10-28T14:48:56.399Z,74
2015-10-28T14:49:56.652Z,74
2015-10-28T14:50:56.873Z,74
2015-10-28T14:51:57.111Z,74
2015-10-28T14:52:57.348Z,74
2015-10-28T14:54:59.353Z,74
2015-10-28T14:55:59.590Z,74
2015-10-28T14:56:59.828Z,74
2015-10-28T14:58:00.048Z,74
2015-10-28T14:59:00.301Z,74
2015-10-28T15:00:00.523Z,74
2015-10-28T15:01:00.761Z,75
2015-10-28T15:02:01.263Z,75
2015-10-28T15:03:01.687Z,75
2015-10-28T15:04:02.300Z,75
2015-10-28T15:05:04.006Z,75
2015-10-28T15:06:04.493Z,75
2015-10-28T15:08:05.483Z,75
2015-10-28T15:09:05.970Z,75
2015-10-28T15:10:06.456Z,75
2015-10-28T15:11:06.944Z,75
2015-10-28T15:12:07.462Z,75
2015-10-28T15:13:07.949Z,75
2015-10-28T15:14:08.483Z,75
2015-10-28T15:15:10.189Z,75
2015-10-28T15:16:10.942Z,75
2015-10-28T15:17:11.695Z,75
2015-10-28T15:18:12.432Z,75
2015-10-28T15:19:13.185Z,75
2015-10-28T15:20:13.938Z,75
2015-10-28T15:21:14.674Z,75
2015-10-28T15:22:15.443Z,75
2015-10-28T15:23:16.180Z,75
2015-10-28T15:24:16.994Z,75
2015-10-28T15:25:18.695Z,75
2015-10-28T15:26:19.448Z,75
2015-10-28T15:27:20.200Z,75
2015-10-28T15:28:21.015Z,75
2015-10-28T15:29:21.706Z,75
2015-10-28T15:30:22.458Z,75
2015-10-28T15:31:23.211Z,75
2015-10-28T15:32:24.198Z,75
2015-10-28T15:33:25.203Z,75
2015-10-28T15:34:26.269Z,75
2015-10-28T15:35:27.989Z,75
2015-10-28T15:36:28.992Z,75
2015-10-28T15:38:31.013Z,75
2015-10-28T15:40:33.035Z,76
2015-10-28T15:41:34.287Z,76
2015-10-28T15:42:35.540Z,76
2015-10-28T15:43:36.808Z,76
2015-10-28T15:44:38.118Z,76
2015-10-28T15:46:41.217Z,76
2015-10-28T15:47:42.362Z,76
2015-10-28T15:48:43.635Z,76
2015-10-28T15:49:44.902Z,76
2015-10-28T15:50:46.155Z,76
2015-10-28T15:51:47.424Z,76
2015-10-28T15:52:48.677Z,76
2015-10-28T15:53:50.241Z,76
2015-10-28T15:54:51.776Z,76
2015-10-28T15:56:55.016Z,76
2015-10-28T15:57:56.534Z,76
2015-10-28T15:58:58.068Z,76
2015-10-28T15:59:59.843Z,76
2015-10-28T16:01:01.627Z,76
2015-10-28T16:02:03.411Z,76
2015-10-28T16:03:05.180Z,76
2015-10-28T16:04:06.963Z,76
2015-10-28T16:05:08.778Z,76
2015-10-28T16:06:10.500Z,77
2015-10-28T16:07:12.533Z,77
2015-10-28T16:08:14.569Z,77
2015-10-28T16:09:16.617Z,77
2015-10-28T16:10:18.636Z,77
2015-10-28T16:11:20.669Z,77
2015-10-28T16:12:22.704Z,77
2015-10-28T16:13:24.988Z,77
2015-10-28T16:14:27.256Z,77
2015-10-28T16:15:29.608Z,77
2015-10-28T16:16:31.329Z,77
2015-10-28T16:17:33.628Z,77
2015-10-28T16:18:35.928Z,77
2015-10-28T16:19:38.196Z,77
2015-10-28T16:20:40.496Z,77
2015-10-28T16:21:42.764Z,78
2015-10-28T16:23:39.677Z,78
2015-10-28T16:24:38.132Z,78
2015-10-28T16:25:36.619Z,78
2015-10-28T16:26:38.340Z,78
2015-10-28T16:27:36.796Z,78
2015-10-28T16:28:35.487Z,78
2015-10-28T16:29:34.209Z,78